createdAt,value
2016-06-29T00:00:24.248Z,0
2016-06-29T00:01:11.137Z,0
2016-06-29T00:02:09.509Z,0
2016-06-29T00:03:08.847Z,0
2016-06-29T00:04:24.484Z,0
2016-06-29T00:06:11.756Z,0
2016-06-29T00:07:10.727Z,0
2016-06-29T00:08:25.117Z,0
2016-06-29T00:09:25.595Z,0
2016-06-29T00:10:11.573Z,0
2016-06-29T00:11:25.331Z,0
2016-06-29T00:12:10.791Z,0
2016-06-29T00:13:11.156Z,0
2016-06-29T00:15:25.793Z,0
2016-06-29T00:16:11.421Z,0
2016-06-29T00:17:10.760Z,0
2016-06-29T00:18:10.447Z,0
2016-06-29T00:19:25.822Z,0
2016-06-29T00:20:11.047Z,0
2016-06-29T00:21:10.193Z,0
2016-06-29T00:23:10.207Z,0
2016-06-29T00:24:25.473Z,0
2016-06-29T00:25:12.064Z,0
2016-06-29T00:26:09.806Z,0
2016-06-29T00:27:11.901Z,0
2016-06-29T00:29:24.682Z,0
2016-06-29T00:30:25.931Z,0
2016-06-29T00:32:25.528Z,0
2016-06-29T00:33:24.347Z,0
2016-06-29T00:34:11.345Z,0
2016-06-29T00:35:24.515Z,0
2016-06-29T00:36:10.701Z,0
2016-06-29T00:37:09.479Z,0
2016-06-29T00:38:09.746Z,0
2016-06-29T00:39:24.344Z,0
2016-06-29T00:40:24.146Z,0
2016-06-29T00:41:24.982Z,0
2016-06-29T00:42:24.163Z,0
2016-06-29T00:44:10.602Z,0
2016-06-29T00:45:10.645Z,0
2016-06-29T00:46:10.058Z,0
2016-06-29T00:47:24.202Z,0
2016-06-29T00:48:39.255Z,0
2016-06-29T00:49:40.296Z,0
2016-06-29T00:50:10.855Z,0
2016-06-29T00:51:11.460Z,0
2016-06-29T00:52:26.705Z,0
2016-06-29T00:53:25.078Z,0
2016-06-29T00:54:09.914Z,0
2016-06-29T00:56:24.488Z,0
2016-06-29T00:57:11.115Z,0
2016-06-29T00:58:12.115Z,0
2016-06-29T00:59:11.979Z,0
2016-06-29T01:00:11.544Z,0
2016-06-29T01:01:25.382Z,0
2016-06-29T01:02:11.349Z,0
2016-06-29T01:03:11.345Z,0
2016-06-29T01:04:11.604Z,0
2016-06-29T01:05:11.578Z,0
2016-06-29T01:06:10.980Z,0
2016-06-29T01:07:11.179Z,0
2016-06-29T01:08:25.023Z,0
2016-06-29T01:09:09.987Z,0
2016-06-29T01:11:09.977Z,0
2016-06-29T01:12:25.037Z,0
2016-06-29T01:13:10.395Z,0
2016-06-29T01:14:10.408Z,0
2016-06-29T01:15:10.221Z,0
2016-06-29T01:16:10.216Z,0
2016-06-29T01:17:10.434Z,0
2016-06-29T01:18:10.450Z,0
2016-06-29T01:19:11.067Z,0
2016-06-29T01:20:10.058Z,0
2016-06-29T01:21:24.901Z,0
2016-06-29T01:22:09.471Z,0
2016-06-29T01:23:10.259Z,0
2016-06-29T01:24:10.072Z,0
2016-06-29T01:25:10.737Z,0
2016-06-29T01:26:25.579Z,0
2016-06-29T01:27:25.560Z,0
2016-06-29T01:29:25.562Z,0
2016-06-29T01:31:24.969Z,0
2016-06-29T01:33:25.182Z,0
2016-06-29T01:34:11.833Z,0
2016-06-29T01:35:11.694Z,0
2016-06-29T01:36:10.630Z,0
2016-06-29T01:37:10.626Z,0
2016-06-29T01:38:10.846Z,0
2016-06-29T01:39:10.246Z,0
2016-06-29T01:40:12.493Z,0
2016-06-29T01:41:12.497Z,0
2016-06-29T01:42:25.715Z,0
2016-06-29T01:44:25.328Z,0
2016-06-29T01:47:11.108Z,0
2016-06-29T01:49:26.813Z,0
2016-06-29T01:50:25.418Z,0
2016-06-29T01:51:11.161Z,0
2016-06-29T01:52:12.592Z,0
2016-06-29T01:53:40.412Z,0
2016-06-29T01:54:11.003Z,0
2016-06-29T01:55:25.633Z,0
2016-06-29T01:56:41.251Z,0
2016-06-29T01:57:26.444Z,0
2016-06-29T01:58:10.799Z,0
2016-06-29T01:59:11.676Z,0
2016-06-29T02:00:12.442Z,0
2016-06-29T02:01:11.426Z,0
2016-06-29T02:03:11.663Z,0
2016-06-29T02:04:10.226Z,0
2016-06-29T02:05:26.098Z,0
2016-06-29T02:06:12.277Z,0
2016-06-29T02:07:11.055Z,0
2016-06-29T02:08:11.472Z,0
2016-06-29T02:09:11.287Z,0
2016-06-29T02:11:11.297Z,0
2016-06-29T02:12:11.300Z,0
2016-06-29T02:13:26.158Z,0
2016-06-29T02:14:11.302Z,0
2016-06-29T02:15:11.119Z,0
2016-06-29T02:16:24.745Z,0
2016-06-29T02:17:10.735Z,0
2016-06-29T02:18:10.926Z,0
2016-06-29T02:19:26.415Z,0
2016-06-29T02:20:26.613Z,0
2016-06-29T02:21:10.743Z,0
2016-06-29T02:22:12.053Z,0
2016-06-29T02:23:12.234Z,0
2016-06-29T02:24:10.829Z,0
2016-06-29T02:25:10.257Z,0
2016-06-29T02:26:11.454Z,0
2016-06-29T02:27:27.093Z,0
2016-06-29T02:28:40.283Z,0
2016-06-29T02:29:12.292Z,0
2016-06-29T02:30:25.676Z,0
2016-06-29T02:31:26.743Z,0
2016-06-29T02:32:26.198Z,0
2016-06-29T02:33:11.900Z,0
2016-06-29T02:34:11.928Z,0
2016-06-29T02:35:11.932Z,0
2016-06-29T02:36:27.188Z,0
2016-06-29T02:37:11.732Z,0
2016-06-29T02:39:11.749Z,0
2016-06-29T02:40:26.194Z,0
2016-06-29T02:41:26.196Z,0
2016-06-29T02:43:11.623Z,0
2016-06-29T02:44:26.214Z,0
2016-06-29T02:45:11.786Z,0
2016-06-29T02:46:10.375Z,0
2016-06-29T02:47:11.202Z,0
2016-06-29T02:48:11.041Z,0
2016-06-29T02:49:10.187Z,0
2016-06-29T02:50:10.178Z,0
2016-06-29T02:51:10.795Z,0
2016-06-29T02:52:10.205Z,0
2016-06-29T02:53:10.449Z,0
2016-06-29T02:54:10.228Z,0
2016-06-29T02:55:10.450Z,0
2016-06-29T02:56:10.235Z,0
2016-06-29T02:57:10.861Z,0
2016-06-29T02:58:10.901Z,0
2016-06-29T02:59:13.371Z,0
2016-06-29T03:00:25.730Z,0
2016-06-29T03:01:25.125Z,0
2016-06-29T03:02:12.766Z,0
2016-06-29T03:03:25.341Z,0
2016-06-29T03:04:26.157Z,0
2016-06-29T03:05:12.392Z,0
2016-06-29T03:06:11.183Z,0
2016-06-29T03:07:11.588Z,0
2016-06-29T03:08:40.015Z,0
2016-06-29T03:09:41.262Z,0
2016-06-29T03:10:40.891Z,0
2016-06-29T03:11:12.231Z,0
2016-06-29T03:12:41.065Z,0
2016-06-29T03:13:12.094Z,0
2016-06-29T03:14:12.371Z,0
2016-06-29T03:15:13.336Z,0
2016-06-29T03:17:13.560Z,0
2016-06-29T03:18:26.536Z,0
2016-06-29T03:19:12.332Z,0
2016-06-29T03:20:27.347Z,0
2016-06-29T03:21:11.700Z,0
2016-06-29T03:22:12.368Z,0
2016-06-29T03:23:25.944Z,0
2016-06-29T03:24:11.499Z,0
2016-06-29T03:25:11.515Z,0
2016-06-29T03:26:11.942Z,0
2016-06-29T03:27:11.745Z,0
2016-06-29T03:28:12.404Z,0
2016-06-29T03:29:13.400Z,0
2016-06-29T03:31:11.798Z,0
2016-06-29T03:32:26.061Z,0
2016-06-29T03:33:12.288Z,0
2016-06-29T03:35:13.371Z,0
2016-06-29T03:36:11.847Z,0
2016-06-29T03:37:11.883Z,0
2016-06-29T03:38:12.302Z,0
2016-06-29T03:39:26.059Z,0
2016-06-29T03:40:27.326Z,0
2016-06-29T03:41:12.655Z,0
2016-06-29T03:43:12.282Z,0
2016-06-29T03:44:26.555Z,0
2016-06-29T03:45:12.131Z,0
2016-06-29T03:46:12.130Z,0
2016-06-29T03:47:27.591Z,0
2016-06-29T03:48:27.399Z,0
2016-06-29T03:49:43.273Z,0
2016-06-29T03:50:12.212Z,0
2016-06-29T03:51:13.654Z,0
2016-06-29T03:52:12.800Z,0
2016-06-29T03:53:27.250Z,0
2016-06-29T03:54:12.872Z,0
2016-06-29T03:55:13.271Z,0
2016-06-29T03:57:13.075Z,0
2016-06-29T03:58:13.496Z,0
2016-06-29T04:00:13.482Z,0
2016-06-29T04:02:12.488Z,0
2016-06-29T04:03:12.477Z,0
2016-06-29T04:04:12.067Z,0
2016-06-29T04:05:11.470Z,0
2016-06-29T04:06:11.476Z,0
2016-06-29T04:07:11.480Z,0
2016-06-29T04:08:12.304Z,0
2016-06-29T04:09:12.101Z,0
2016-06-29T04:10:11.555Z,0
2016-06-29T04:11:12.326Z,0
2016-06-29T04:12:10.896Z,0
2016-06-29T04:13:26.978Z,0
2016-06-29T04:14:12.550Z,0
2016-06-29T04:17:11.535Z,0
2016-06-29T04:18:10.955Z,0
2016-06-29T04:19:10.952Z,0
2016-06-29T04:20:11.156Z,0
2016-06-29T04:21:10.975Z,0
2016-06-29T04:22:11.179Z,0
2016-06-29T04:23:10.967Z,0
2016-06-29T04:24:10.977Z,0
2016-06-29T04:25:11.651Z,5
2016-06-29T04:26:12.271Z,5
2016-06-29T04:27:11.000Z,5
2016-06-29T04:28:11.007Z,5
2016-06-29T04:29:25.857Z,5
2016-06-29T04:31:25.881Z,5
2016-06-29T04:32:11.698Z,10
2016-06-29T04:33:12.271Z,10
2016-06-29T04:34:11.047Z,10
2016-06-29T04:35:11.510Z,10
2016-06-29T04:36:11.084Z,10
2016-06-29T04:37:11.481Z,10
2016-06-29T04:38:12.105Z,15
2016-06-29T04:39:26.342Z,10
2016-06-29T04:40:12.106Z,10
2016-06-29T04:41:11.746Z,10
2016-06-29T04:42:26.613Z,10
2016-06-29T04:43:25.954Z,10
2016-06-29T04:44:11.774Z,10
2016-06-29T04:45:13.002Z,10
2016-06-29T04:46:11.822Z,10
2016-06-29T04:47:11.588Z,10
2016-06-29T04:48:12.868Z,10
2016-06-29T04:50:12.018Z,5
2016-06-29T04:51:12.483Z,5
2016-06-29T04:52:11.852Z,5
2016-06-29T04:53:12.047Z,5
2016-06-29T04:54:11.825Z,5
2016-06-29T04:55:13.487Z,5
2016-06-29T04:56:12.488Z,5
2016-06-29T04:57:13.329Z,10
2016-06-29T04:58:26.907Z,10
2016-06-29T04:59:26.905Z,10
2016-06-29T05:00:26.900Z,10
2016-06-29T05:01:12.110Z,10
2016-06-29T05:02:26.319Z,10
2016-06-29T05:03:11.685Z,10
2016-06-29T05:04:26.151Z,10
2016-06-29T05:05:41.997Z,10
2016-06-29T05:06:26.991Z,10
2016-06-29T05:07:12.167Z,15
2016-06-29T05:08:41.205Z,20
2016-06-29T05:09:12.587Z,20
2016-06-29T05:10:12.849Z,20
2016-06-29T05:11:13.004Z,20
2016-06-29T05:12:12.972Z,20
2016-06-29T05:13:13.045Z,20
2016-06-29T05:14:13.619Z,20
2016-06-29T05:15:14.261Z,20
2016-06-29T05:16:12.837Z,20
2016-06-29T05:17:13.480Z,25
2016-06-29T05:18:27.683Z,30
2016-06-29T05:19:13.702Z,30
2016-06-29T05:20:13.890Z,30
2016-06-29T05:21:13.086Z,35
2016-06-29T05:22:12.267Z,35
2016-06-29T05:23:27.925Z,45
2016-06-29T05:24:12.906Z,45
2016-06-29T05:25:26.899Z,40
2016-06-29T05:26:28.205Z,35
2016-06-29T05:27:27.551Z,30
2016-06-29T05:28:14.151Z,25
2016-06-29T05:29:26.312Z,25
2016-06-29T05:30:27.355Z,25
2016-06-29T05:31:26.338Z,25
2016-06-29T05:32:13.982Z,25
2016-06-29T05:33:13.609Z,30
2016-06-29T05:34:13.035Z,25
2016-06-29T05:35:27.247Z,25
2016-06-29T05:36:41.826Z,25
2016-06-29T05:37:13.015Z,25
2016-06-29T05:38:13.682Z,20
2016-06-29T05:39:12.995Z,20
2016-06-29T05:40:28.305Z,20
2016-06-29T05:41:13.244Z,20
2016-06-29T05:42:27.024Z,25
2016-06-29T05:43:13.861Z,30
2016-06-29T05:44:29.553Z,35
2016-06-29T05:45:14.164Z,35
2016-06-29T05:46:13.690Z,35
2016-06-29T05:47:13.745Z,30
2016-06-29T05:48:27.069Z,30
2016-06-29T05:49:13.137Z,30
2016-06-29T05:50:13.328Z,30
2016-06-29T05:51:14.359Z,35
2016-06-29T05:52:12.909Z,40
2016-06-29T05:53:12.505Z,40
2016-06-29T05:54:12.311Z,35
2016-06-29T05:55:13.143Z,35
2016-06-29T05:56:12.318Z,30
2016-06-29T05:57:13.608Z,30
2016-06-29T05:58:12.332Z,30
2016-06-29T05:59:13.007Z,30
2016-06-29T06:00:12.161Z,35
2016-06-29T06:01:11.747Z,35
2016-06-29T06:02:13.653Z,35
2016-06-29T06:03:26.607Z,40
2016-06-29T06:04:12.177Z,40
2016-06-29T06:05:13.047Z,35
2016-06-29T06:06:12.783Z,35
2016-06-29T06:07:13.439Z,40
2016-06-29T06:08:13.683Z,40
2016-06-29T06:09:12.855Z,40
2016-06-29T06:10:27.274Z,45
2016-06-29T06:11:12.674Z,50
2016-06-29T06:12:14.126Z,60
2016-06-29T06:13:13.312Z,75
2016-06-29T06:14:12.662Z,95
2016-06-29T06:15:12.076Z,110
2016-06-29T06:16:13.119Z,115
2016-06-29T06:18:12.524Z,115
2016-06-29T06:19:27.342Z,115
2016-06-29T06:20:28.241Z,115
2016-06-29T06:21:13.617Z,115
2016-06-29T06:22:13.513Z,115
2016-06-29T06:23:12.858Z,110
2016-06-29T06:24:13.602Z,110
2016-06-29T06:25:14.032Z,115
2016-06-29T06:26:13.227Z,120
2016-06-29T06:27:13.608Z,120
2016-06-29T06:28:12.612Z,125
2016-06-29T06:29:12.646Z,130
2016-06-29T06:30:14.053Z,125
2016-06-29T06:31:27.251Z,130
2016-06-29T06:32:28.918Z,140
2016-06-29T06:33:29.135Z,150
2016-06-29T06:34:13.353Z,160
2016-06-29T06:35:13.918Z,160
2016-06-29T06:36:13.306Z,165
2016-06-29T06:37:14.104Z,145
2016-06-29T06:38:13.105Z,130
2016-06-29T06:39:28.151Z,130
2016-06-29T06:40:13.097Z,135
2016-06-29T06:41:14.186Z,135
2016-06-29T06:43:13.962Z,160
2016-06-29T06:44:13.591Z,170
2016-06-29T06:45:13.821Z,185
2016-06-29T06:46:13.605Z,200
2016-06-29T06:47:27.599Z,205
2016-06-29T06:48:13.412Z,215
2016-06-29T06:49:28.654Z,210
2016-06-29T06:50:12.855Z,200
2016-06-29T06:51:14.293Z,190
2016-06-29T06:52:13.851Z,180
2016-06-29T06:53:14.704Z,165
2016-06-29T06:54:27.883Z,150
2016-06-29T06:57:27.082Z,115
2016-06-29T06:58:28.142Z,115
2016-06-29T07:00:27.971Z,100
2016-06-29T07:01:13.747Z,105
2016-06-29T07:02:14.173Z,100
2016-06-29T07:04:13.590Z,105
2016-06-29T07:05:12.964Z,105
2016-06-29T07:06:12.351Z,115
2016-06-29T07:07:13.591Z,110
2016-06-29T07:08:28.338Z,105
2016-06-29T07:09:13.820Z,105
2016-06-29T07:10:27.300Z,100
2016-06-29T07:11:13.235Z,95
2016-06-29T07:12:13.858Z,95
2016-06-29T07:13:12.440Z,100
2016-06-29T07:15:28.163Z,120
2016-06-29T07:16:13.939Z,115
2016-06-29T07:17:28.765Z,115
2016-06-29T07:18:14.339Z,120
2016-06-29T07:19:14.181Z,125
2016-06-29T07:21:27.755Z,175
2016-06-29T07:22:13.622Z,195
2016-06-29T07:23:28.028Z,240
2016-06-29T07:24:13.180Z,250
2016-06-29T07:25:13.597Z,245
2016-06-29T07:26:13.446Z,250
2016-06-29T07:27:13.846Z,245
2016-06-29T07:28:28.046Z,220
2016-06-29T07:29:12.800Z,210
2016-06-29T07:30:12.606Z,205
2016-06-29T07:31:13.019Z,190
2016-06-29T07:32:27.674Z,180
2016-06-29T07:33:12.834Z,170
2016-06-29T07:34:28.522Z,155
2016-06-29T07:35:13.588Z,160
2016-06-29T07:36:13.963Z,155
2016-06-29T07:37:14.448Z,155
2016-06-29T07:38:12.717Z,150
2016-06-29T07:39:14.384Z,160
2016-06-29T07:40:13.592Z,165
2016-06-29T07:41:13.423Z,170
2016-06-29T07:42:28.244Z,170
2016-06-29T07:43:13.647Z,175
2016-06-29T07:44:27.805Z,165
2016-06-29T07:45:13.427Z,165
2016-06-29T07:46:15.045Z,165
2016-06-29T07:47:14.576Z,170
2016-06-29T07:48:28.467Z,165
2016-06-29T07:49:28.951Z,180
2016-06-29T07:50:14.903Z,190
2016-06-29T07:51:14.107Z,190
2016-06-29T07:52:13.533Z,185
2016-06-29T07:53:28.552Z,175
2016-06-29T07:54:14.726Z,150
2016-06-29T07:55:14.560Z,135
2016-06-29T07:56:16.446Z,135
2016-06-29T07:57:16.271Z,135
2016-06-29T07:58:14.455Z,135
2016-06-29T07:59:29.677Z,170
2016-06-29T08:00:14.546Z,170
2016-06-29T08:01:28.954Z,160
2016-06-29T08:02:16.263Z,160
2016-06-29T08:03:14.375Z,155
2016-06-29T08:04:15.911Z,160
2016-06-29T08:05:15.016Z,170
2016-06-29T08:06:14.144Z,170
2016-06-29T08:07:29.438Z,145
2016-06-29T08:08:14.276Z,135
2016-06-29T08:09:14.739Z,150
2016-06-29T08:10:29.030Z,165
2016-06-29T08:12:16.321Z,175
2016-06-29T08:13:13.640Z,165
2016-06-29T08:14:15.290Z,165
2016-06-29T08:15:13.335Z,185
2016-06-29T08:16:29.029Z,195
2016-06-29T08:17:14.933Z,210
2016-06-29T08:18:15.417Z,225
2016-06-29T08:19:15.234Z,240
2016-06-29T08:20:29.276Z,255
2016-06-29T08:21:14.543Z,260
2016-06-29T08:22:14.740Z,265
2016-06-29T08:23:30.033Z,265
2016-06-29T08:24:13.557Z,270
2016-06-29T08:25:30.434Z,275
2016-06-29T08:26:15.402Z,280
2016-06-29T08:27:30.589Z,285
2016-06-29T08:28:16.492Z,285
2016-06-29T08:29:29.731Z,280
2016-06-29T08:30:28.610Z,275
2016-06-29T08:31:14.274Z,275
2016-06-29T08:32:28.244Z,265
2016-06-29T08:33:29.645Z,255
2016-06-29T08:35:15.698Z,240
2016-06-29T08:36:15.344Z,235
2016-06-29T08:37:14.690Z,230
2016-06-29T08:38:16.124Z,225
2016-06-29T08:39:16.443Z,215
2016-06-29T08:40:29.572Z,205
2016-06-29T08:41:33.130Z,190
2016-06-29T08:43:02.246Z,150
2016-06-29T08:43:21.659Z,145
2016-06-29T08:44:33.586Z,115
2016-06-29T08:45:43.414Z,105
2016-06-29T08:46:34.631Z,105
2016-06-29T08:48:32.811Z,95
2016-06-29T08:49:32.425Z,95
2016-06-29T08:50:18.927Z,95
2016-06-29T08:51:21.079Z,95
2016-06-29T08:52:34.682Z,120
2016-06-29T08:53:32.229Z,145
2016-06-29T08:54:15.437Z,170
2016-06-29T08:55:14.417Z,160
2016-06-29T08:56:34.777Z,130
2016-06-29T08:57:47.127Z,115
2016-06-29T08:58:46.711Z,140
2016-06-29T08:59:17.475Z,160
2016-06-29T09:00:15.335Z,185
2016-06-29T09:01:30.167Z,195
2016-06-29T09:02:17.054Z,200
2016-06-29T09:03:14.703Z,215
2016-06-29T09:04:15.192Z,225
2016-06-29T09:05:16.466Z,230
2016-06-29T09:06:15.006Z,245
2016-06-29T09:07:15.371Z,235
2016-06-29T09:08:16.746Z,210
2016-06-29T09:09:15.860Z,180
2016-06-29T09:10:16.115Z,165
2016-06-29T09:11:15.606Z,170
2016-06-29T09:12:15.863Z,205
2016-06-29T09:13:16.242Z,235
2016-06-29T09:14:30.011Z,250
2016-06-29T09:15:14.924Z,230
2016-06-29T09:16:15.441Z,195
2016-06-29T09:17:16.674Z,190
2016-06-29T09:18:17.317Z,200
2016-06-29T09:19:29.960Z,200
2016-06-29T09:21:16.288Z,135
2016-06-29T09:22:13.988Z,145
2016-06-29T09:23:15.681Z,125
2016-06-29T09:24:16.309Z,115
2016-06-29T09:25:16.203Z,115
2016-06-29T09:26:15.570Z,120
2016-06-29T09:27:28.986Z,165
2016-06-29T09:28:15.370Z,170
2016-06-29T09:29:15.374Z,165
2016-06-29T09:30:15.177Z,155
2016-06-29T09:31:15.344Z,135
2016-06-29T09:32:28.967Z,125
2016-06-29T09:33:30.051Z,130
2016-06-29T09:34:44.029Z,130
2016-06-29T09:35:16.286Z,130
2016-06-29T09:37:14.416Z,130
2016-06-29T09:38:14.619Z,120
2016-06-29T09:39:15.734Z,115
2016-06-29T09:40:14.907Z,115
2016-06-29T09:41:29.746Z,120
2016-06-29T09:42:15.725Z,115
2016-06-29T09:43:16.935Z,105
2016-06-29T09:44:15.197Z,100
2016-06-29T09:45:29.162Z,95
2016-06-29T09:46:14.955Z,105
2016-06-29T09:47:15.169Z,110
2016-06-29T09:48:44.246Z,130
2016-06-29T09:49:15.018Z,120
2016-06-29T09:50:31.086Z,130
2016-06-29T09:51:29.869Z,130
2016-06-29T09:52:15.664Z,140
2016-06-29T09:53:15.338Z,170
2016-06-29T09:54:15.710Z,230
2016-06-29T09:55:16.336Z,265
2016-06-29T09:56:16.370Z,265
2016-06-29T09:57:15.354Z,245
2016-06-29T09:58:15.162Z,205
2016-06-29T09:59:16.204Z,200
2016-06-29T10:00:16.004Z,190
2016-06-29T10:01:15.433Z,155
2016-06-29T10:02:16.629Z,165
2016-06-29T10:03:15.743Z,205
2016-06-29T10:04:17.483Z,220
2016-06-29T10:05:30.999Z,260
2016-06-29T10:06:30.790Z,270
2016-06-29T10:07:16.452Z,280
2016-06-29T10:08:17.447Z,265
2016-06-29T10:09:16.691Z,210
2016-06-29T10:10:14.913Z,185
2016-06-29T10:11:16.576Z,150
2016-06-29T10:12:16.696Z,160
2016-06-29T10:13:17.183Z,165
2016-06-29T10:14:16.895Z,185
2016-06-29T10:15:17.624Z,245
2016-06-29T10:16:30.975Z,230
2016-06-29T10:17:31.717Z,230
2016-06-29T10:18:18.125Z,225
2016-06-29T10:19:18.230Z,240
2016-06-29T10:20:15.384Z,240
2016-06-29T10:22:17.744Z,285
2016-06-29T10:23:16.782Z,295
2016-06-29T10:24:15.381Z,280
2016-06-29T10:25:31.113Z,250
2016-06-29T10:26:17.973Z,210
2016-06-29T10:27:15.596Z,175
2016-06-29T10:29:16.778Z,185
2016-06-29T10:30:16.118Z,220
2016-06-29T10:31:16.994Z,245
2016-06-29T10:32:17.469Z,265
2016-06-29T10:33:17.390Z,265
2016-06-29T10:34:31.323Z,250
2016-06-29T10:35:16.915Z,240
2016-06-29T10:36:17.810Z,225
2016-06-29T10:37:18.539Z,230
2016-06-29T10:38:17.565Z,250
2016-06-29T10:39:32.185Z,250
2016-06-29T10:40:17.999Z,250
2016-06-29T10:41:31.687Z,250
2016-06-29T10:42:31.792Z,270
2016-06-29T10:44:17.810Z,295
2016-06-29T10:45:31.806Z,300
2016-06-29T10:46:17.408Z,275
2016-06-29T10:47:18.057Z,265
2016-06-29T10:48:32.250Z,240
2016-06-29T10:49:32.345Z,250
2016-06-29T10:50:18.009Z,265
2016-06-29T10:51:16.611Z,280
2016-06-29T10:52:19.202Z,235
2016-06-29T10:53:31.676Z,250
2016-06-29T10:54:17.528Z,260
2016-06-29T10:55:16.920Z,270
2016-06-29T10:56:17.054Z,250
2016-06-29T10:57:32.140Z,230
2016-06-29T10:58:16.036Z,260
2016-06-29T10:59:16.515Z,270
2016-06-29T11:00:16.307Z,245
2016-06-29T11:01:16.664Z,230
2016-06-29T11:02:33.571Z,240
2016-06-29T11:03:18.446Z,245
2016-06-29T11:04:17.937Z,225
2016-06-29T11:05:32.653Z,270
2016-06-29T11:06:20.186Z,245
2016-06-29T11:07:17.235Z,255
2016-06-29T11:08:17.671Z,225
2016-06-29T11:09:32.634Z,230
2016-06-29T11:10:32.603Z,230
2016-06-29T11:11:18.077Z,215
2016-06-29T11:12:15.984Z,250
2016-06-29T11:13:15.998Z,255
2016-06-29T11:14:16.491Z,225
2016-06-29T11:15:16.886Z,285
2016-06-29T11:16:16.704Z,275
2016-06-29T11:17:16.055Z,260
2016-06-29T11:18:17.456Z,265
2016-06-29T11:19:16.642Z,260
2016-06-29T11:20:17.731Z,320
2016-06-29T11:21:15.982Z,290
2016-06-29T11:22:18.091Z,200
2016-06-29T11:23:31.456Z,190
2016-06-29T11:25:31.770Z,220
2016-06-29T11:26:17.454Z,230
2016-06-29T11:27:19.205Z,240
2016-06-29T11:28:16.929Z,240
2016-06-29T11:29:19.084Z,315
2016-06-29T11:30:18.752Z,370
2016-06-29T11:32:19.463Z,350
2016-06-29T11:33:32.644Z,310
2016-06-29T11:34:33.026Z,290
2016-06-29T11:35:16.753Z,255
2016-06-29T11:36:30.832Z,235
2016-06-29T11:37:17.890Z,245
2016-06-29T11:38:17.894Z,260
2016-06-29T11:39:32.912Z,255
2016-06-29T11:40:33.112Z,305
2016-06-29T11:41:18.530Z,295
2016-06-29T11:42:18.217Z,290
2016-06-29T11:43:18.983Z,315
2016-06-29T11:45:18.821Z,310
2016-06-29T11:46:19.294Z,295
2016-06-29T11:48:18.599Z,275
2016-06-29T11:49:32.060Z,240
2016-06-29T11:50:18.137Z,250
2016-06-29T11:51:18.118Z,270
2016-06-29T11:52:33.230Z,230
2016-06-29T11:53:19.326Z,210
2016-06-29T11:54:31.170Z,170
2016-06-29T11:55:32.102Z,160
2016-06-29T11:56:18.629Z,155
2016-06-29T11:57:31.364Z,160
2016-06-29T11:58:34.172Z,155
2016-06-29T12:00:33.754Z,170
2016-06-29T12:02:19.572Z,200
2016-06-29T12:03:19.569Z,200
2016-06-29T12:04:18.466Z,140
2016-06-29T12:05:19.136Z,155
2016-06-29T12:06:17.924Z,145
2016-06-29T12:07:32.702Z,175
2016-06-29T12:08:17.980Z,155
2016-06-29T12:09:33.970Z,125
2016-06-29T12:10:20.689Z,125
2016-06-29T12:11:19.396Z,195
2016-06-29T12:12:18.762Z,125
2016-06-29T12:13:33.751Z,165
2016-06-29T12:14:32.329Z,180
2016-06-29T12:15:18.596Z,180
2016-06-29T12:16:19.034Z,120
2016-06-29T12:17:19.490Z,210
2016-06-29T12:18:19.026Z,175
2016-06-29T12:19:32.413Z,235
2016-06-29T12:20:19.273Z,220
2016-06-29T12:21:18.506Z,185
2016-06-29T12:22:32.735Z,185
2016-06-29T12:23:34.530Z,235
2016-06-29T12:24:33.758Z,210
2016-06-29T12:25:19.784Z,220
2016-06-29T12:26:35.696Z,210
2016-06-29T12:27:32.660Z,185
2016-06-29T12:28:18.577Z,175
2016-06-29T12:30:17.887Z,160
2016-06-29T12:31:31.868Z,155
2016-06-29T12:32:33.654Z,155
2016-06-29T12:34:21.119Z,150
2016-06-29T12:36:18.718Z,165
2016-06-29T12:37:32.887Z,170
2016-06-29T12:38:19.568Z,160
2016-06-29T12:39:19.153Z,150
2016-06-29T12:40:19.537Z,150
2016-06-29T12:41:33.689Z,150
2016-06-29T12:42:20.145Z,155
2016-06-29T12:43:19.382Z,155
2016-06-29T12:44:18.141Z,155
2016-06-29T12:45:19.617Z,145
2016-06-29T12:47:19.630Z,135
2016-06-29T12:48:19.031Z,130
2016-06-29T12:49:18.620Z,130
2016-06-29T12:50:18.329Z,130
2016-06-29T12:51:18.672Z,130
2016-06-29T12:52:17.839Z,125
2016-06-29T12:53:19.166Z,135
2016-06-29T12:54:33.195Z,130
2016-06-29T12:55:48.002Z,130
2016-06-29T12:56:19.389Z,135
2016-06-29T12:57:18.134Z,155
2016-06-29T12:58:33.637Z,170
2016-06-29T13:00:19.027Z,170
2016-06-29T13:01:19.681Z,165
2016-06-29T13:02:32.242Z,170
2016-06-29T13:03:35.166Z,180
2016-06-29T13:04:18.904Z,185
2016-06-29T13:06:20.186Z,170
2016-06-29T13:07:18.118Z,170
2016-06-29T13:08:19.156Z,170
2016-06-29T13:09:33.843Z,200
2016-06-29T13:10:33.386Z,190
2016-06-29T13:11:18.199Z,190
2016-06-29T13:12:19.493Z,175
2016-06-29T13:13:33.708Z,150
2016-06-29T13:14:18.489Z,180
2016-06-29T13:15:20.725Z,160
2016-06-29T13:16:19.319Z,165
2016-06-29T13:18:48.607Z,165
2016-06-29T13:20:20.348Z,180
2016-06-29T13:21:35.095Z,160
2016-06-29T13:22:19.251Z,90
2016-06-29T13:23:19.404Z,150
2016-06-29T13:24:19.938Z,140
2016-06-29T13:25:34.611Z,135
2016-06-29T13:26:33.154Z,130
2016-06-29T13:27:19.874Z,130
2016-06-29T13:29:20.661Z,130
2016-06-29T13:30:19.025Z,125
2016-06-29T13:31:19.639Z,125
2016-06-29T13:32:21.346Z,130
2016-06-29T13:33:35.099Z,130
2016-06-29T13:35:20.416Z,130
2016-06-29T13:36:19.576Z,135
2016-06-29T13:37:35.410Z,135
2016-06-29T13:39:35.016Z,145
2016-06-29T13:40:33.391Z,140
2016-06-29T13:41:35.510Z,145
2016-06-29T13:42:34.880Z,155
2016-06-29T13:43:19.102Z,165
2016-06-29T13:44:22.043Z,175
2016-06-29T13:45:36.123Z,180
2016-06-29T13:46:20.712Z,175
2016-06-29T13:47:48.925Z,145
2016-06-29T13:48:20.574Z,155
2016-06-29T13:49:21.112Z,160
2016-06-29T13:50:34.209Z,130
2016-06-29T13:51:20.599Z,120
2016-06-29T13:53:22.263Z,120
2016-06-29T13:54:35.125Z,200
2016-06-29T13:55:35.882Z,140
2016-06-29T13:56:35.272Z,205
2016-06-29T13:57:20.727Z,200
2016-06-29T13:58:34.943Z,205
2016-06-29T13:59:34.711Z,250
2016-06-29T14:00:21.317Z,755
2016-06-29T14:01:35.407Z,105
2016-06-29T14:02:21.420Z,770
2016-06-29T14:03:22.373Z,1095
2016-06-29T14:04:34.945Z,90
2016-06-29T14:05:34.640Z,70
2016-06-29T14:06:21.331Z,70
2016-06-29T14:07:51.186Z,90
2016-06-29T14:08:35.699Z,95
2016-06-29T14:09:21.128Z,105
2016-06-29T14:10:36.585Z,115
2016-06-29T14:11:20.764Z,120
2016-06-29T14:13:35.387Z,155
2016-06-29T14:14:35.087Z,145
2016-06-29T14:15:36.738Z,125
2016-06-29T14:16:19.807Z,130
2016-06-29T14:17:35.511Z,130
2016-06-29T14:18:21.485Z,135
2016-06-29T14:19:22.035Z,210
2016-06-29T14:20:34.911Z,190
2016-06-29T14:21:36.011Z,175
2016-06-29T14:22:21.069Z,160
2016-06-29T14:24:20.924Z,105
2016-06-29T14:25:21.523Z,145
2016-06-29T14:26:22.994Z,145
2016-06-29T14:27:20.948Z,150
2016-06-29T14:28:36.229Z,155
2016-06-29T14:29:35.253Z,155
2016-06-29T14:30:36.358Z,145
2016-06-29T14:31:35.487Z,145
2016-06-29T14:32:22.879Z,135
2016-06-29T14:33:22.590Z,135
2016-06-29T14:34:21.078Z,140
2016-06-29T14:36:20.565Z,135
2016-06-29T14:37:20.975Z,140
2016-06-29T14:38:21.226Z,140
2016-06-29T14:39:21.453Z,80
2016-06-29T14:40:34.652Z,150
2016-06-29T14:41:36.105Z,155
2016-06-29T14:42:21.051Z,150
2016-06-29T14:43:20.748Z,155
2016-06-29T14:45:49.158Z,190
2016-06-29T14:46:20.327Z,195
2016-06-29T14:47:21.990Z,200
2016-06-29T14:48:21.196Z,190
2016-06-29T14:49:34.992Z,170
2016-06-29T14:50:21.027Z,165
2016-06-29T14:51:20.839Z,150
2016-06-29T14:52:21.222Z,160
2016-06-29T14:53:21.671Z,165
2016-06-29T14:54:34.655Z,160
2016-06-29T14:55:19.942Z,165
2016-06-29T14:56:21.315Z,175
2016-06-29T14:57:20.071Z,180
2016-06-29T14:58:21.548Z,190
2016-06-29T14:59:21.591Z,195
2016-06-29T15:00:35.210Z,215
2016-06-29T15:01:20.996Z,235
2016-06-29T15:02:20.401Z,250
2016-06-29T15:03:20.425Z,270
2016-06-29T15:04:50.715Z,255
2016-06-29T15:05:35.693Z,255
2016-06-29T15:06:20.891Z,275
2016-06-29T15:07:35.134Z,285
2016-06-29T15:08:21.953Z,260
2016-06-29T15:09:51.008Z,200
2016-06-29T15:10:36.013Z,140
2016-06-29T15:11:35.431Z,140
2016-06-29T15:13:20.619Z,130
2016-06-29T15:14:50.061Z,115
2016-06-29T15:15:21.067Z,115
2016-06-29T15:16:20.438Z,120